createdAt,value
2019-05-12T00:00:00.686Z,86.22
2019-05-12T00:01:40.710Z,86.32
2019-05-12T00:03:20.705Z,86.26
2019-05-12T00:05:00.218Z,86.33
2019-05-12T00:06:40.468Z,86.26
2019-05-12T00:08:20.742Z,86.29
2019-05-12T00:10:00.195Z,86.45
2019-05-12T00:11:39.633Z,86.76
2019-05-12T00:15:00.053Z,87.21
2019-05-12T00:16:40.325Z,87.01
2019-05-12T00:18:19.905Z,87.21
2019-05-12T00:20:00.216Z,87.32
2019-05-12T00:21:41.612Z,87.37
2019-05-12T00:23:31.149Z,87.51
2019-05-12T00:25:10.843Z,87.59
2019-05-12T00:26:50.208Z,87.54
2019-05-12T00:28:30.149Z,87.56
2019-05-12T00:30:11.900Z,87.68
2019-05-12T00:31:51.377Z,87.8
2019-05-12T00:33:30.898Z,87.85
2019-05-12T00:35:10.390Z,88.03
2019-05-12T00:36:50.248Z,88.09
2019-05-12T00:38:29.864Z,88.18
2019-05-12T00:40:10.604Z,88.25
2019-05-12T00:41:50.133Z,88.38
2019-05-12T00:43:29.961Z,88.43
2019-05-12T00:45:09.917Z,88.57
2019-05-12T00:46:50.563Z,88.57
2019-05-12T00:48:30.263Z,88.6
2019-05-12T00:50:10.001Z,88.63
2019-05-12T00:51:50.343Z,88.64
2019-05-12T00:53:43.465Z,88.65
2019-05-12T00:55:24.281Z,88.7
2019-05-12T00:57:07.583Z,88.76
2019-05-12T00:58:48.740Z,88.8
2019-05-12T01:00:31.197Z,88.79
2019-05-12T01:02:10.702Z,88.93
2019-05-12T01:03:50.228Z,88.99
2019-05-12T01:05:31.111Z,88.8
2019-05-12T01:07:10.515Z,88.7
2019-05-12T01:08:50.024Z,88.78
2019-05-12T01:10:30.455Z,88.78
2019-05-12T01:12:09.916Z,88.64
2019-05-12T01:13:50.248Z,88.51
2019-05-12T01:15:30.077Z,88.51
2019-05-12T01:17:10.225Z,88.6
2019-05-12T01:18:49.734Z,88.58
2019-05-12T01:20:30.119Z,88.49
2019-05-12T01:22:09.890Z,88.65
2019-05-12T01:24:03.211Z,88.63
2019-05-12T01:26:00.374Z,88.61
2019-05-12T01:27:52.686Z,88.57
2019-05-12T01:29:32.191Z,88.7
2019-05-12T01:31:11.578Z,88.69
2019-05-12T01:32:51.039Z,88.9
2019-05-12T01:34:30.543Z,89.14
2019-05-12T01:36:09.989Z,89.26
2019-05-12T01:37:49.502Z,89.51
2019-05-12T01:39:29.470Z,89.67
2019-05-12T01:41:10.509Z,89.87
2019-05-12T01:42:50.096Z,90.1
2019-05-12T01:44:30.473Z,90.24
2019-05-12T01:46:09.964Z,90.24
2019-05-12T01:47:50.251Z,90.34
2019-05-12T01:49:30.718Z,90.45
2019-05-12T01:51:10.226Z,90.6
2019-05-12T01:52:49.637Z,90.76
2019-05-12T01:54:29.556Z,90.69
2019-05-12T01:56:09.569Z,90.79
2019-05-12T01:57:49.726Z,90.73
2019-05-12T02:01:18.469Z,91.23
2019-05-12T02:03:00.300Z,90.86
2019-05-12T02:04:39.699Z,90.96
2019-05-12T02:08:05.752Z,91.32
2019-05-12T02:09:49.682Z,90.97
2019-05-12T02:11:30.543Z,91.15
2019-05-12T02:13:10.001Z,91.21
2019-05-12T02:14:50.334Z,91.16
2019-05-12T02:16:29.852Z,91.18
2019-05-12T02:18:10.975Z,91.2
2019-05-12T02:19:50.328Z,91.11
2019-05-12T02:21:29.731Z,91.18
2019-05-12T02:23:10.797Z,91.11
2019-05-12T02:24:50.244Z,91.18
2019-05-12T02:26:30.774Z,91.35
2019-05-12T02:28:11.214Z,91.4
2019-05-12T02:29:50.681Z,91.55
2019-05-12T02:31:31.371Z,91.65
2019-05-12T02:33:10.791Z,91.69
2019-05-12T02:34:56.563Z,91.72
2019-05-12T02:36:36.154Z,91.79
2019-05-12T02:38:16.331Z,91.82
2019-05-12T02:39:57.462Z,91.77
2019-05-12T02:41:36.952Z,91.82
2019-05-12T02:43:17.148Z,91.82
2019-05-12T02:44:56.903Z,91.79
2019-05-12T02:46:36.766Z,91.66
2019-05-12T02:48:16.417Z,91.77
2019-05-12T02:49:56.358Z,91.72
2019-05-12T02:51:37.018Z,91.73
2019-05-12T02:53:16.504Z,91.77
2019-05-12T02:56:44.183Z,92.08
2019-05-12T02:58:27.066Z,91.69
2019-05-12T03:00:06.491Z,91.66
2019-05-12T03:01:46.948Z,91.82
2019-05-12T03:03:26.946Z,91.85
2019-05-12T03:05:07.448Z,91.81
2019-05-12T03:06:46.960Z,91.77
2019-05-12T03:08:27.562Z,91.94
2019-05-12T03:10:07.133Z,91.86
2019-05-12T03:11:46.645Z,91.83
2019-05-12T03:13:27.149Z,91.83
2019-05-12T03:15:07.383Z,91.82
2019-05-12T03:16:47.277Z,91.75
2019-05-12T03:18:27.283Z,91.76
2019-05-12T03:20:06.949Z,91.56
2019-05-12T03:21:46.520Z,91.53
2019-05-12T03:23:26.693Z,91.34
2019-05-12T03:25:24.246Z,91.42
2019-05-12T03:27:19.655Z,91.24
2019-05-12T03:29:01.573Z,91.43
2019-05-12T03:30:56.692Z,91.8
2019-05-12T03:32:40.088Z,91.42
2019-05-12T03:34:30.933Z,91.55
2019-05-12T03:36:19.975Z,91.5
2019-05-12T03:38:28.936Z,91.23
2019-05-12T03:40:14.399Z,91.45
2019-05-12T03:42:05.052Z,91.74
2019-05-12T03:43:46.688Z,91.34
2019-05-12T03:45:26.909Z,91.34
2019-05-12T03:47:06.872Z,91.23
2019-05-12T03:50:26.474Z,91.62
2019-05-12T03:52:06.309Z,91.33
2019-05-12T03:53:47.286Z,91.39
2019-05-12T03:55:41.733Z,91.43
2019-05-12T03:59:16.937Z,91.37
2019-05-12T04:00:57.195Z,91.31
2019-05-12T04:02:36.613Z,91.34
2019-05-12T04:04:17.367Z,91.42
2019-05-12T04:06:00.958Z,91.29
2019-05-12T04:07:44.980Z,91.31
2019-05-12T04:09:26.369Z,91.39
2019-05-12T04:11:07.144Z,91.37
2019-05-12T04:12:46.854Z,91.5
2019-05-12T04:14:27.099Z,91.53
2019-05-12T04:16:06.827Z,91.46
2019-05-12T04:17:47.104Z,91.54
2019-05-12T04:19:26.888Z,91.5
2019-05-12T04:21:07.416Z,91.53
2019-05-12T04:22:46.809Z,91.43
2019-05-12T04:24:26.922Z,91.29
2019-05-12T04:26:16.894Z,91.31
2019-05-12T04:27:56.634Z,91.03
2019-05-12T04:29:36.664Z,91.02
2019-05-12T04:31:17.296Z,90.98
2019-05-12T04:34:46.471Z,91.42
2019-05-12T04:36:26.772Z,90.91
2019-05-12T04:38:06.838Z,90.93
2019-05-12T04:39:46.450Z,90.92
2019-05-12T04:41:27.893Z,90.86
2019-05-12T04:43:08.566Z,90.78
2019-05-12T04:44:50.727Z,90.69
2019-05-12T04:46:36.316Z,90.69
2019-05-12T04:48:21.155Z,90.77
2019-05-12T04:50:07.068Z,90.45
2019-05-12T04:51:46.913Z,90.38
2019-05-12T04:53:26.948Z,90.27
2019-05-12T04:55:06.731Z,89.98
2019-05-12T04:56:46.576Z,90.01
2019-05-12T04:58:27.326Z,90.17
2019-05-12T05:00:07.193Z,90.22
2019-05-12T05:01:47.290Z,90.2
2019-05-12T05:03:26.719Z,90.14
2019-05-12T05:05:07.268Z,89.93
2019-05-12T05:06:46.947Z,89.86
2019-05-12T05:08:26.463Z,89.81
2019-05-12T05:10:05.905Z,89.86
2019-05-12T05:11:46.883Z,89.91
2019-05-12T05:13:26.345Z,89.93
2019-05-12T05:15:07.284Z,89.89
2019-05-12T05:16:46.612Z,89.52
2019-05-12T05:18:26.058Z,89.61
2019-05-12T05:20:05.866Z,89.71
2019-05-12T05:21:45.448Z,89.75
2019-05-12T05:23:25.933Z,89.57
2019-05-12T05:25:05.974Z,89.47
2019-05-12T05:26:45.452Z,89.33
2019-05-12T05:30:06.863Z,89.27
2019-05-12T05:31:46.322Z,88.81
2019-05-12T05:33:25.772Z,88.75
2019-05-12T05:35:09.053Z,88.33
2019-05-12T05:36:56.981Z,88.44
2019-05-12T05:38:43.445Z,88.32
2019-05-12T05:40:32.325Z,88.35
2019-05-12T05:42:15.244Z,87.93
2019-05-12T05:44:00.202Z,87.7
2019-05-12T05:45:43.688Z,87.63
2019-05-12T05:47:29.361Z,87.39
2019-05-12T05:49:09.891Z,87.3
2019-05-12T05:50:51.325Z,87.03
2019-05-12T05:54:35.779Z,87.48
2019-05-12T05:56:20.317Z,86.8
2019-05-12T05:58:33.692Z,86.95
2019-05-12T06:00:28.068Z,87.17
2019-05-12T06:02:07.399Z,86.9
2019-05-12T06:03:46.835Z,86.87
2019-05-12T06:05:30.990Z,87.1
2019-05-12T06:07:38.539Z,87.12
2019-05-12T06:09:28.015Z,86.46
2019-05-12T06:12:54.211Z,86.35
2019-05-12T06:14:36.056Z,85.9
2019-05-12T06:16:35.818Z,86.03
2019-05-12T06:18:15.363Z,85.72
2019-05-12T06:19:55.652Z,85.77
2019-05-12T06:21:38.606Z,85.58
2019-05-12T06:23:20.273Z,85.68
2019-05-12T06:25:06.729Z,85.83
2019-05-12T06:27:05.722Z,86.18
2019-05-12T06:29:06.258Z,85.89
2019-05-12T06:31:00.025Z,85.91
2019-05-12T06:32:49.648Z,85.64
2019-05-12T06:34:34.256Z,85.66
2019-05-12T06:36:21.826Z,85.27
2019-05-12T06:38:06.791Z,85.05
2019-05-12T06:39:46.179Z,85.06
2019-05-12T06:41:35.683Z,85.23
2019-05-12T06:43:15.199Z,85.42
2019-05-12T06:44:58.607Z,85.29
2019-05-12T06:46:40.600Z,85.16
2019-05-12T06:48:43.074Z,84.76
2019-05-12T06:50:44.132Z,84.29
2019-05-12T06:52:54.919Z,84
2019-05-12T06:54:35.373Z,84.03
2019-05-12T06:56:43.308Z,83.73
2019-05-12T06:58:34.356Z,83.92
2019-05-12T07:00:16.271Z,83.64
2019-05-12T07:02:07.241Z,82.87
2019-05-12T07:03:46.708Z,82.68
2019-05-12T07:05:33.608Z,82.62
2019-05-12T07:07:23.420Z,82.56
2019-05-12T07:09:28.327Z,82.56
2019-05-12T07:11:53.327Z,81.72
2019-05-12T07:14:07.734Z,80.18
2019-05-12T07:16:16.445Z,79.46
2019-05-12T07:18:17.633Z,79.5
2019-05-12T07:20:23.861Z,79.07
2019-05-12T07:22:25.828Z,79.58
2019-05-12T07:24:28.077Z,78.44
2019-05-12T07:26:19.745Z,78.14
2019-05-12T07:28:09.227Z,76.86
2019-05-12T07:29:50.845Z,76.6
2019-05-12T07:31:33.680Z,77.13
2019-05-12T07:33:16.212Z,77.14
2019-05-12T07:34:56.207Z,75.22
2019-05-12T07:36:35.724Z,75.89
2019-05-12T07:38:25.656Z,75.83
2019-05-12T07:40:06.636Z,74.92
2019-05-12T07:41:54.839Z,74.83
2019-05-12T07:43:35.522Z,75.12
2019-05-12T07:45:25.054Z,74.78
2019-05-12T07:47:05.500Z,74.83
2019-05-12T07:48:51.043Z,74.77
2019-05-12T07:50:34.181Z,74.51
2019-05-12T07:52:15.536Z,73.64
2019-05-12T07:55:45.283Z,71.35
2019-05-12T07:57:34.413Z,70.48
2019-05-12T07:59:43.768Z,69.71
2019-05-12T08:05:05.172Z,70.13
2019-05-12T08:06:56.390Z,69.61
2019-05-12T08:08:35.908Z,72.87
2019-05-12T08:10:34.194Z,68.33
2019-05-12T08:12:21.174Z,69.38
2019-05-12T08:14:03.578Z,69.29
2019-05-12T08:15:52.889Z,69.63
2019-05-12T08:17:35.447Z,69.65
2019-05-12T08:19:26.474Z,69.28
2019-05-12T08:21:10.119Z,68.84
2019-05-12T08:22:54.008Z,66.53
2019-05-12T08:30:13.617Z,67.59
2019-05-12T08:31:54.794Z,66.13
2019-05-12T08:33:36.530Z,66.22
2019-05-12T08:35:33.253Z,66.81
2019-05-12T08:39:20.988Z,66.41
2019-05-12T08:41:06.069Z,65.37
2019-05-12T08:42:45.544Z,65.42
2019-05-12T08:44:40.341Z,66.02
2019-05-12T08:46:24.277Z,65.55
2019-05-12T08:48:10.044Z,65.98
2019-05-12T08:50:00.610Z,67.01
2019-05-12T08:51:44.230Z,67.3
2019-05-12T08:53:35.345Z,67.36
2019-05-12T08:55:22.657Z,68.36
2019-05-12T08:57:24.006Z,69.15
2019-05-12T09:01:04.342Z,69.33
2019-05-12T09:02:50.690Z,69.49
2019-05-12T09:04:33.762Z,69.7
2019-05-12T09:06:19.990Z,68.94
2019-05-12T09:08:06.686Z,67.41
2019-05-12T09:09:46.189Z,65.93
2019-05-12T09:11:25.990Z,66.22
2019-05-12T09:13:06.014Z,67.06
2019-05-12T09:14:48.011Z,67.41
2019-05-12T09:16:30.844Z,67.46
2019-05-12T09:18:11.554Z,67.14
2019-05-12T09:20:08.103Z,67.44
2019-05-12T09:21:50.180Z,68.79
2019-05-12T09:25:23.695Z,68.04
2019-05-12T09:27:09.196Z,67.59
2019-05-12T09:28:54.147Z,68.26
2019-05-12T09:30:39.943Z,67.57
2019-05-12T09:32:26.343Z,66.3
2019-05-12T09:34:16.276Z,66.74
2019-05-12T09:35:59.260Z,64.33
2019-05-12T09:37:44.089Z,63.76
2019-05-12T09:39:25.154Z,63.2
2019-05-12T09:41:17.430Z,60.73
2019-05-12T09:43:06.131Z,59.32
2019-05-12T09:44:50.105Z,57.84
2019-05-12T09:46:39.333Z,57.81
2019-05-12T09:48:20.462Z,57.92
2019-05-12T09:50:04.311Z,59.57
2019-05-12T09:51:56.093Z,61.38
2019-05-12T09:53:35.868Z,62.48
2019-05-12T09:55:33.668Z,63.27
2019-05-12T09:57:15.390Z,63.82
2019-05-12T09:59:17.071Z,64.42
2019-05-12T10:01:08.248Z,64.62
2019-05-12T10:03:00.823Z,64.78
2019-05-12T10:04:50.195Z,64.8
2019-05-12T10:06:36.822Z,64.43
2019-05-12T10:08:16.345Z,65.17
2019-05-12T10:11:44.494Z,64.44
2019-05-12T10:13:36.005Z,63.28
2019-05-12T10:15:24.600Z,63.02
2019-05-12T10:17:09.449Z,61.47
2019-05-12T10:18:53.002Z,60.1
2019-05-12T10:20:39.981Z,60.07
2019-05-12T10:22:23.213Z,60.53
2019-05-12T10:24:06.994Z,60.1
2019-05-12T10:25:46.487Z,58.99
2019-05-12T10:27:34.465Z,58.23
2019-05-12T10:31:05.941Z,58.45
2019-05-12T10:32:45.410Z,59.03
2019-05-12T10:34:29.190Z,59.37
2019-05-12T10:36:16.134Z,59.9
2019-05-12T10:38:00.068Z,60.76
2019-05-12T10:39:47.411Z,60.93
2019-05-12T10:41:26.921Z,61.09
2019-05-12T10:43:06.582Z,61.48
2019-05-12T10:44:45.899Z,59.64
2019-05-12T10:46:30.163Z,58.55
2019-05-12T10:48:09.656Z,57.43
2019-05-12T10:49:50.463Z,56.04
2019-05-12T10:51:34.237Z,55.61
2019-05-12T10:53:18.034Z,54.24
2019-05-12T10:54:59.693Z,52.88
2019-05-12T10:56:54.502Z,51.65
2019-05-12T10:58:35.348Z,51.99
2019-05-12T11:00:19.602Z,52.67
2019-05-12T11:02:05.243Z,53.94
2019-05-12T11:03:52.157Z,55.1
2019-05-12T11:05:35.689Z,55.11
2019-05-12T11:07:15.304Z,54.94
2019-05-12T11:08:59.512Z,54.29
2019-05-12T11:10:41.640Z,54.85
2019-05-12T11:12:29.082Z,54.44
2019-05-12T11:14:09.696Z,53.67
2019-05-12T11:15:51.459Z,54.37
2019-05-12T11:17:34.594Z,53.36
2019-05-12T11:19:22.412Z,52.42
2019-05-12T11:21:03.550Z,52.19
2019-05-12T11:22:45.563Z,53.64
2019-05-12T11:24:25.058Z,53.3
2019-05-12T11:26:05.615Z,53.78
2019-05-12T11:27:45.504Z,54.34
2019-05-12T11:31:06.081Z,57.19
2019-05-12T11:32:45.908Z,57.8
2019-05-12T11:34:25.449Z,57.16
2019-05-12T11:36:06.097Z,57
2019-05-12T11:37:45.526Z,55.45
2019-05-12T11:39:25.416Z,53.49
2019-05-12T11:41:20.536Z,50.92
2019-05-12T11:43:06.189Z,49.57
2019-05-12T11:44:46.839Z,48.75
2019-05-12T11:46:26.257Z,48.39
2019-05-12T11:48:11.637Z,48.72
2019-05-12T11:49:58.451Z,48.02
2019-05-12T11:51:46.485Z,47.05
2019-05-12T11:53:34.855Z,46.27
2019-05-12T11:55:15.162Z,47.75
2019-05-12T11:57:06.235Z,50.26
2019-05-12T11:58:54.093Z,51.45
2019-05-12T12:00:35.490Z,52.11
2019-05-12T12:02:15.233Z,51.25
2019-05-12T12:04:13.828Z,52.46
2019-05-12T12:05:55.448Z,53.48
2019-05-12T12:07:38.835Z,52.85
2019-05-12T12:09:32.431Z,51.5
2019-05-12T12:11:22.016Z,50.36
2019-05-12T12:13:06.088Z,48.86
2019-05-12T12:14:50.587Z,47.71
2019-05-12T12:16:33.651Z,47.31
2019-05-12T12:18:25.371Z,46.98
2019-05-12T12:20:05.523Z,46.88
2019-05-12T12:21:53.623Z,46.37
2019-05-12T12:23:35.103Z,47.21
2019-05-12T12:25:26.013Z,49.15
2019-05-12T12:28:45.357Z,50.23
2019-05-12T12:30:25.467Z,50.73
2019-05-12T12:32:04.845Z,49.25
2019-05-12T12:33:55.374Z,48.42
2019-05-12T12:35:36.475Z,47.27
2019-05-12T12:37:23.961Z,45.57
2019-05-12T12:40:49.519Z,43.16
2019-05-12T12:42:36.410Z,42.28
2019-05-12T12:44:25.990Z,41.74
2019-05-12T12:46:10.456Z,41.58
2019-05-12T12:48:04.199Z,43.16
2019-05-12T12:49:49.373Z,44.13
2019-05-12T12:51:28.921Z,45.97
2019-05-12T12:53:10.559Z,46.07
2019-05-12T12:54:50.010Z,44.92
2019-05-12T12:56:33.631Z,44.44
2019-05-12T12:58:20.973Z,44.23
2019-05-12T13:00:10.405Z,44.01
2019-05-12T13:02:11.066Z,44.21
2019-05-12T13:04:06.508Z,43.68
2019-05-12T13:05:55.965Z,42.6
2019-05-12T13:07:35.305Z,43.29
2019-05-12T13:09:24.608Z,44.48
2019-05-12T13:11:06.071Z,44.73
2019-05-12T13:12:50.281Z,45.75
2019-05-12T13:14:40.129Z,46.53
2019-05-12T13:16:23.830Z,46.7
2019-05-12T13:18:03.394Z,45.79
2019-05-12T13:19:54.598Z,45
2019-05-12T13:21:36.987Z,45.1
2019-05-12T13:23:16.517Z,44.03
2019-05-12T13:25:11.005Z,43.44
2019-05-12T13:26:53.986Z,42.99
2019-05-12T13:28:34.217Z,43.27
2019-05-12T13:30:24.334Z,42.56
2019-05-12T13:32:05.792Z,42.56
2019-05-12T13:33:49.332Z,42.57
2019-05-12T13:35:34.164Z,41.8
2019-05-12T13:37:19.835Z,42.2
2019-05-12T13:39:01.064Z,43.01
2019-05-12T13:40:41.214Z,43.66
2019-05-12T13:42:24.129Z,43.93
2019-05-12T13:44:15.519Z,44.04
2019-05-12T13:45:55.274Z,42.94
2019-05-12T13:47:41.521Z,44.13
2019-05-12T13:49:24.265Z,45.32
2019-05-12T13:51:17.549Z,46.72
2019-05-12T13:53:01.015Z,46.84
2019-05-12T13:54:54.732Z,48.15
2019-05-12T13:56:45.539Z,48.42
2019-05-12T13:58:34.361Z,48.67
2019-05-12T14:00:22.511Z,48.68
2019-05-12T14:02:03.266Z,47.9
2019-05-12T14:03:50.846Z,46.2
2019-05-12T14:05:31.514Z,44
2019-05-12T14:07:20.014Z,43.02
2019-05-12T14:09:04.204Z,42.33
2019-05-12T14:10:59.146Z,43.01
2019-05-12T14:12:38.937Z,43.49
2019-05-12T14:14:20.551Z,42.65
2019-05-12T14:16:06.607Z,42.32
2019-05-12T14:17:47.706Z,41.52
2019-05-12T14:19:35.494Z,40.82
2019-05-12T14:21:15.732Z,41.21
2019-05-12T14:22:55.586Z,40.64
2019-05-12T14:24:44.120Z,40.5
2019-05-12T14:26:25.957Z,40.28
2019-05-12T14:28:09.459Z,40.88
2019-05-12T14:29:54.860Z,42.84
2019-05-12T14:32:02.108Z,45.19
2019-05-12T14:33:48.596Z,45.82
2019-05-12T14:35:43.686Z,46.29
2019-05-12T14:37:25.989Z,47.18
2019-05-12T14:39:10.501Z,48.5
2019-05-12T14:40:53.452Z,48.6
2019-05-12T14:42:43.945Z,47.62
2019-05-12T14:44:25.713Z,45.65
2019-05-12T14:46:10.415Z,44.25
2019-05-12T14:47:53.952Z,45.16
2019-05-12T14:49:45.249Z,46.43
2019-05-12T14:51:26.351Z,47.7
2019-05-12T14:53:05.869Z,48.8
2019-05-12T14:54:45.303Z,49.65
2019-05-12T14:56:25.090Z,49.04
2019-05-12T14:58:09.129Z,48.24
2019-05-12T14:59:57.190Z,45.99
2019-05-12T15:03:34.181Z,45.56
2019-05-12T15:05:17.321Z,46.35
2019-05-12T15:07:09.906Z,47.38
2019-05-12T15:08:51.482Z,48.47
2019-05-12T15:10:33.757Z,47.51
2019-05-12T15:12:15.713Z,46.34
2019-05-12T15:13:55.839Z,45.37
2019-05-12T15:15:35.321Z,44.61
2019-05-12T15:17:24.438Z,43.95
2019-05-12T15:19:05.255Z,43.54
2019-05-12T15:20:56.780Z,42.65
2019-05-12T15:22:36.282Z,42.77
2019-05-12T15:24:33.527Z,42.29
2019-05-12T15:26:21.281Z,41.89
2019-05-12T15:28:03.818Z,41.63
2019-05-12T15:29:43.352Z,40.77
2019-05-12T15:31:37.284Z,41.59
2019-05-12T15:35:20.251Z,44.51
2019-05-12T15:37:04.067Z,45.03
2019-05-12T15:38:48.984Z,45.33
2019-05-12T15:40:42.835Z,44.32
2019-05-12T15:42:25.136Z,42.77
2019-05-12T15:44:06.423Z,42.31
2019-05-12T15:45:55.114Z,42.92
2019-05-12T15:47:37.720Z,43.55
2019-05-12T15:49:17.294Z,44.27
2019-05-12T15:51:05.076Z,45.08
2019-05-12T15:52:47.600Z,45.83
2019-05-12T15:54:27.176Z,46.97
2019-05-12T15:56:22.964Z,47.76
2019-05-12T15:58:07.338Z,48.04
2019-05-12T15:59:46.781Z,48.82
2019-05-12T16:01:26.286Z,49.73
2019-05-12T16:03:05.788Z,50.29
2019-05-12T16:04:50.082Z,50.23
2019-05-12T16:06:31.406Z,50.7
2019-05-12T16:08:10.888Z,51.3
2019-05-12T16:09:54.598Z,51.11
2019-05-12T16:11:34.546Z,51.43
2019-05-12T16:13:17.376Z,52.17
2019-05-12T16:14:56.899Z,52.05
2019-05-12T16:16:44.398Z,51.8
2019-05-12T16:18:28.438Z,51.2
2019-05-12T16:20:10.711Z,49.77
2019-05-12T16:21:54.074Z,49.84
2019-05-12T16:23:35.779Z,49.17
2019-05-12T16:25:20.517Z,48.82
2019-05-12T16:27:07.397Z,49.27
2019-05-12T16:28:46.814Z,48.9
2019-05-12T16:30:38.283Z,48.9
2019-05-12T16:32:38.971Z,49.05
2019-05-12T16:34:35.963Z,49.68
2019-05-12T16:36:25.244Z,50.24
2019-05-12T16:38:19.597Z,50.71
2019-05-12T16:40:01.378Z,50.76
2019-05-12T16:41:43.827Z,51.05
2019-05-12T16:45:13.924Z,52.3
2019-05-12T16:46:56.352Z,52.79
2019-05-12T16:48:42.014Z,52.83
2019-05-12T16:50:34.435Z,53.03
2019-05-12T16:52:15.560Z,53.01
2019-05-12T16:53:55.722Z,52.66
2019-05-12T16:55:49.723Z,53.43
2019-05-12T16:57:33.240Z,54.03
2019-05-12T16:59:22.457Z,54.09
2019-05-12T17:01:05.501Z,53.22
2019-05-12T17:06:34.789Z,53.55
2019-05-12T17:08:17.190Z,53.61
2019-05-12T17:09:56.878Z,53.68
2019-05-12T17:11:55.520Z,53.59
2019-05-12T17:13:35.826Z,53.37
2019-05-12T17:15:25.260Z,54.22
2019-05-12T17:17:06.176Z,54.26
2019-05-12T17:18:50.827Z,54.46
2019-05-12T17:20:40.830Z,54.68
2019-05-12T17:22:27.587Z,54.88
2019-05-12T17:24:07.330Z,55.68
2019-05-12T17:25:47.174Z,55.79
2019-05-12T17:27:29.198Z,55.67
2019-05-12T17:29:10.410Z,54.99
2019-05-12T17:30:54.117Z,54.98
2019-05-12T17:32:34.120Z,55.49
2019-05-12T17:34:16.112Z,55.94
2019-05-12T17:36:11.656Z,56.29
2019-05-12T17:37:57.141Z,56.63
2019-05-12T17:39:40.985Z,56.66
2019-05-12T17:41:25.508Z,57.09
2019-05-12T17:43:17.361Z,57
2019-05-12T17:44:57.397Z,57.24
2019-05-12T17:46:39.882Z,57.51
2019-05-12T17:48:23.379Z,57.43
2019-05-12T17:50:09.912Z,57.91
2019-05-12T17:51:53.419Z,58.46
2019-05-12T17:53:48.142Z,59.34
2019-05-12T17:55:30.724Z,60.22
2019-05-12T17:57:15.551Z,61.12
2019-05-12T17:59:04.187Z,62.1
2019-05-12T18:00:51.895Z,62.96
2019-05-12T18:02:34.186Z,63.42
2019-05-12T18:04:20.297Z,64.05
2019-05-12T18:06:30.823Z,64.54
2019-05-12T18:08:14.198Z,64.4
2019-05-12T18:10:00.823Z,64.37
2019-05-12T18:11:46.044Z,64.36
2019-05-12T18:13:39.460Z,64.43
2019-05-12T18:15:37.617Z,64.65
2019-05-12T18:17:26.149Z,64.43
2019-05-12T18:19:15.195Z,64.21
2019-05-12T18:20:57.680Z,64.25
2019-05-12T18:22:47.084Z,64.37
2019-05-12T18:24:26.992Z,64.61
2019-05-12T18:26:16.542Z,64.94
2019-05-12T18:27:56.238Z,65.2
2019-05-12T18:29:36.090Z,65.19
2019-05-12T18:31:15.772Z,65.31
2019-05-12T18:33:08.740Z,65.41
2019-05-12T18:35:15.370Z,65.67
2019-05-12T18:37:00.673Z,66.04
2019-05-12T18:38:44.439Z,66.19
2019-05-12T18:40:28.121Z,66.35
2019-05-12T18:42:10.403Z,66.72
2019-05-12T18:43:53.863Z,66.87
2019-05-12T18:45:48.572Z,67.16
2019-05-12T18:47:38.305Z,67.31
2019-05-12T18:49:20.251Z,67.6
2019-05-12T18:51:16.872Z,67.88
2019-05-12T18:52:56.652Z,67.95
2019-05-12T18:54:36.240Z,68.19
2019-05-12T18:56:35.437Z,68.39
2019-05-12T18:58:21.581Z,68.46
2019-05-12T19:00:13.241Z,68.42
2019-05-12T19:01:54.065Z,68.32
2019-05-12T19:03:51.092Z,68.34
2019-05-12T19:05:40.841Z,67.89
2019-05-12T19:07:35.817Z,67.99
2019-05-12T19:09:28.244Z,67.8
2019-05-12T19:13:06.711Z,67.3
2019-05-12T19:14:54.668Z,67.62
2019-05-12T19:16:34.375Z,67.86
2019-05-12T19:18:24.194Z,67.63
2019-05-12T19:20:23.800Z,67.46
2019-05-12T19:22:14.056Z,67.41
2019-05-12T19:23:56.177Z,67.35
2019-05-12T19:25:40.602Z,67.55
2019-05-12T19:27:24.022Z,67.94
2019-05-12T19:29:05.830Z,67.97
2019-05-12T19:30:45.490Z,68.17
2019-05-12T19:32:31.187Z,68.21
2019-05-12T19:34:26.141Z,68.53
2019-05-12T19:36:09.191Z,68.84
2019-05-12T19:37:50.119Z,69.21
2019-05-12T19:39:33.942Z,69.52
2019-05-12T19:41:15.739Z,69.56
2019-05-12T19:43:08.017Z,69.49
2019-05-12T19:44:47.672Z,69.49
2019-05-12T19:46:27.179Z,69.65
2019-05-12T19:48:06.742Z,69.78
2019-05-12T19:50:13.158Z,70.35
2019-05-12T19:52:03.526Z,66.94
2019-05-12T19:53:45.461Z,66.2
2019-05-12T19:55:25.862Z,70.52
2019-05-12T19:57:05.402Z,68.62
2019-05-12T19:59:09.244Z,73.67
2019-05-12T20:00:50.925Z,70.85
2019-05-12T20:02:34.168Z,70.44
2019-05-12T20:04:33.068Z,70.67
2019-05-12T20:06:33.558Z,70.71
2019-05-12T20:08:17.231Z,71.32
2019-05-12T20:10:04.339Z,71.22
2019-05-12T20:11:44.192Z,71.51
2019-05-12T20:13:29.433Z,71.69
2019-05-12T20:15:17.147Z,71.81
2019-05-12T20:16:56.724Z,72.03
2019-05-12T20:18:48.840Z,72.32
2019-05-12T20:20:41.417Z,72.38
2019-05-12T20:22:24.293Z,72.46
2019-05-12T20:25:46.211Z,73.11
2019-05-12T20:27:26.484Z,72.89
2019-05-12T20:29:05.756Z,73.17
2019-05-12T20:32:28.266Z,73.81
2019-05-12T20:34:13.848Z,73.69
2019-05-12T20:35:58.229Z,73.96
2019-05-12T20:37:57.406Z,74.38
2019-05-12T20:39:37.090Z,75.09
2019-05-12T20:43:12.035Z,76.5
2019-05-12T20:45:05.223Z,76.6
2019-05-12T20:46:49.221Z,76.99
2019-05-12T20:48:33.871Z,77.1
2019-05-12T20:50:15.706Z,77.52
2019-05-12T20:53:54.225Z,78.29
2019-05-12T20:55:41.543Z,77.98
2019-05-12T20:57:23.605Z,78.05
2019-05-12T20:59:05.581Z,78.49
2019-05-12T21:00:57.136Z,78.69
2019-05-12T21:02:43.916Z,78.71
2019-05-12T21:04:37.105Z,78.85
2019-05-12T21:06:20.245Z,78.62
2019-05-12T21:09:52.989Z,79.01
2019-05-12T21:11:35.434Z,78.86
2019-05-12T21:13:34.080Z,79.21
2019-05-12T21:15:20.613Z,78.98
2019-05-12T21:19:20.567Z,79.08
2019-05-12T21:21:06.091Z,78.82
2019-05-12T21:22:46.626Z,79.24
2019-05-12T21:24:35.829Z,78.99
2019-05-12T21:26:17.763Z,79.02
2019-05-12T21:28:07.575Z,78.89
2019-05-12T21:29:46.498Z,79.11
2019-05-12T21:33:16.591Z,80.08
2019-05-12T21:34:59.701Z,79.83
2019-05-12T21:38:47.562Z,80.48
2019-05-12T21:40:31.888Z,80.56
2019-05-12T21:42:12.631Z,80.69
2019-05-12T21:43:54.234Z,80.92
2019-05-12T21:45:41.105Z,81.3
2019-05-12T21:47:20.757Z,81.14
2019-05-12T21:49:12.788Z,81.22
2019-05-12T21:50:56.919Z,81.2
2019-05-12T21:54:24.141Z,81.42
2019-05-12T21:56:15.630Z,81.26
2019-05-12T21:57:55.595Z,81.71
2019-05-12T21:59:47.333Z,81.84
2019-05-12T22:01:26.751Z,82.2
2019-05-12T22:03:18.117Z,82.35
2019-05-12T22:04:57.810Z,82.22
2019-05-12T22:06:38.128Z,82.27
2019-05-12T22:08:25.358Z,82.39
2019-05-12T22:10:06.495Z,82.69
2019-05-12T22:11:53.418Z,82.29
2019-05-12T22:13:36.604Z,82.32
2019-05-12T22:15:30.846Z,82.26
2019-05-12T22:17:13.625Z,82.68
2019-05-12T22:18:59.216Z,82.55
2019-05-12T22:20:41.398Z,81.92
2019-05-12T22:22:36.732Z,82.21
2019-05-12T22:24:16.417Z,82.28
2019-05-12T22:26:09.426Z,82.13
2019-05-12T22:27:48.820Z,82.13
2019-05-12T22:29:38.064Z,82.53
2019-05-12T22:31:19.981Z,82.28
2019-05-12T22:33:05.742Z,82.23
2019-05-12T22:34:50.246Z,82.42
2019-05-12T22:36:33.592Z,82.6
2019-05-12T22:38:21.268Z,82.56
2019-05-12T22:40:19.203Z,82.83
2019-05-12T22:41:59.861Z,82.5
2019-05-12T22:43:51.068Z,82.77
2019-05-12T22:45:44.077Z,82.62
2019-05-12T22:47:27.199Z,82.52
2019-05-12T22:49:10.334Z,82.58
2019-05-12T22:50:57.184Z,82.64
2019-05-12T22:52:52.977Z,82.71
2019-05-12T22:54:35.275Z,82.92
2019-05-12T22:56:25.395Z,83
2019-05-12T22:58:04.808Z,83.05
2019-05-12T22:59:57.477Z,83.07
2019-05-12T23:03:29.180Z,83.41
2019-05-12T23:05:16.645Z,82.93
2019-05-12T23:07:05.503Z,83.16
2019-05-12T23:08:49.328Z,83.05
2019-05-12T23:10:51.232Z,83.45
2019-05-12T23:12:36.010Z,83.1
2019-05-12T23:14:24.959Z,83.06
2019-05-12T23:16:05.256Z,83.14
2019-05-12T23:17:49.585Z,83.25
2019-05-12T23:19:30.965Z,83.21
2019-05-12T23:21:18.689Z,83.27
2019-05-12T23:23:00.583Z,83.38
2019-05-12T23:24:45.828Z,83.42
2019-05-12T23:26:26.319Z,83.39
2019-05-12T23:28:33.733Z,83.12
2019-05-12T23:30:26.163Z,83.23
2019-05-12T23:32:12.574Z,83.14
2019-05-12T23:33:56.189Z,82.94
2019-05-12T23:37:40.068Z,82.92
2019-05-12T23:39:23.547Z,82.71
2019-05-12T23:41:04.168Z,82.58
2019-05-12T23:42:46.187Z,82.6
2019-05-12T23:44:25.696Z,82.56
2019-05-12T23:46:05.205Z,82.54
2019-05-12T23:47:45.822Z,82.46
2019-05-12T23:49:26.157Z,82.34
2019-05-12T23:51:05.726Z,82.22